sensor_id;sensor_type;location;lat;lon;timestamp;temperature;humidity
69589;SHT31;56792;50.644;17.984;2023-04-01T00:00:53;9.60;76.25
69589;SHT31;56792;50.644;17.984;2023-04-01T00:03:23;9.62;76.30
69589;SHT31;56792;50.644;17.984;2023-04-01T00:05:53;9.63;76.30
69589;SHT31;56792;50.644;17.984;2023-04-01T00:08:22;9.65;76.32
69589;SHT31;56792;50.644;17.984;2023-04-01T00:10:52;9.66;76.30
69589;SHT31;56792;50.644;17.984;2023-04-01T00:13:21;9.70;76.27
69589;SHT31;56792;50.644;17.984;2023-04-01T00:15:49;9.70;76.35
69589;SHT31;56792;50.644;17.984;2023-04-01T00:18:18;9.71;76.36
69589;SHT31;56792;50.644;17.984;2023-04-01T00:20:47;9.73;76.38
69589;SHT31;56792;50.644;17.984;2023-04-01T00:23:17;9.73;76.28
69589;SHT31;56792;50.644;17.984;2023-04-01T00:25:46;9.74;76.26
69589;SHT31;56792;50.644;17.984;2023-04-01T00:28:15;9.73;76.31
69589;SHT31;56792;50.644;17.984;2023-04-01T00:30:45;9.73;76.26
69589;SHT31;56792;50.644;17.984;2023-04-01T00:33:14;9.72;76.21
69589;SHT31;56792;50.644;17.984;2023-04-01T00:35:43;9.72;76.20
69589;SHT31;56792;50.644;17.984;2023-04-01T00:38:11;9.73;76.25
69589;SHT31;56792;50.644;17.984;2023-04-01T00:40:41;9.73;76.21
69589;SHT31;56792;50.644;17.984;2023-04-01T00:43:12;9.72;76.27
69589;SHT31;56792;50.644;17.984;2023-04-01T00:45:45;9.69;76.28
69589;SHT31;56792;50.644;17.984;2023-04-01T00:48:16;9.66;76.31
69589;SHT31;56792;50.644;17.984;2023-04-01T00:50:48;9.64;76.39
69589;SHT31;56792;50.644;17.984;2023-04-01T00:53:23;9.64;76.40
69589;SHT31;56792;50.644;17.984;2023-04-01T00:55:53;9.65;76.41
69589;SHT31;56792;50.644;17.984;2023-04-01T00:58:27;9.64;76.46
69589;SHT31;56792;50.644;17.984;2023-04-01T01:01:02;9.62;76.47
69589;SHT31;56792;50.644;17.984;2023-04-01T01:03:32;9.59;76.53
69589;SHT31;56792;50.644;17.984;2023-04-01T01:06:07;9.57;76.62
69589;SHT31;56792;50.644;17.984;2023-04-01T01:09:01;9.53;76.62
69589;SHT31;56792;50.644;17.984;2023-04-01T01:11:41;9.50;76.65
69589;SHT31;56792;50.644;17.984;2023-04-01T01:14:20;9.47;76.70
69589;SHT31;56792;50.644;17.984;2023-04-01T01:17:06;9.45;76.70
69589;SHT31;56792;50.644;17.984;2023-04-01T01:19:50;9.42;76.77
69589;SHT31;56792;50.644;17.984;2023-04-01T01:22:45;9.40;76.83
69589;SHT31;56792;50.644;17.984;2023-04-01T01:25:32;9.38;76.85
69589;SHT31;56792;50.644;17.984;2023-04-01T01:28:25;9.38;76.79
69589;SHT31;56792;50.644;17.984;2023-04-01T01:31:08;9.37;76.78
69589;SHT31;56792;50.644;17.984;2023-04-01T01:33:51;9.40;76.78
69589;SHT31;56792;50.644;17.984;2023-04-01T01:36:32;9.40;76.75
69589;SHT31;56792;50.644;17.984;2023-04-01T01:39:05;9.41;76.79
69589;SHT31;56792;50.644;17.984;2023-04-01T01:41:36;9.41;76.82
69589;SHT31;56792;50.644;17.984;2023-04-01T01:44:08;9.40;76.83
69589;SHT31;56792;50.644;17.984;2023-04-01T01:46:40;9.39;76.86
69589;SHT31;56792;50.644;17.984;2023-04-01T01:49:10;9.37;77.00
69589;SHT31;56792;50.644;17.984;2023-04-01T01:51:41;9.36;76.98
69589;SHT31;56792;50.644;17.984;2023-04-01T01:54:12;9.35;77.03
69589;SHT31;56792;50.644;17.984;2023-04-01T01:56:41;9.35;77.12
69589;SHT31;56792;50.644;17.984;2023-04-01T01:59:15;9.36;77.11
69589;SHT31;56792;50.644;17.984;2023-04-01T02:01:48;9.38;77.10
69589;SHT31;56792;50.644;17.984;2023-04-01T02:04:21;9.41;77.11
69589;SHT31;56792;50.644;17.984;2023-04-01T02:06:53;9.43;77.14
69589;SHT31;56792;50.644;17.984;2023-04-01T02:09:27;9.45;77.12
69589;SHT31;56792;50.644;17.984;2023-04-01T02:11:56;9.47;77.13
69589;SHT31;56792;50.644;17.984;2023-04-01T02:14:33;9.49;77.11
69589;SHT31;56792;50.644;17.984;2023-04-01T02:17:10;9.51;77.14
69589;SHT31;56792;50.644;17.984;2023-04-01T02:19:43;9.53;77.16
69589;SHT31;56792;50.644;17.984;2023-04-01T02:22:18;9.55;77.12
69589;SHT31;56792;50.644;17.984;2023-04-01T02:24:52;9.57;77.10
69589;SHT31;56792;50.644;17.984;2023-04-01T02:27:25;9.60;77.11
69589;SHT31;56792;50.644;17.984;2023-04-01T02:29:54;9.62;77.10
69589;SHT31;56792;50.644;17.984;2023-04-01T02:32:23;9.64;77.03
69589;SHT31;56792;50.644;17.984;2023-04-01T02:34:53;9.67;76.93
69589;SHT31;56792;50.644;17.984;2023-04-01T02:37:22;9.71;76.89
69589;SHT31;56792;50.644;17.984;2023-04-01T02:39:51;9.73;76.89
69589;SHT31;56792;50.644;17.984;2023-04-01T02:42:19;9.75;76.83
69589;SHT31;56792;50.644;17.984;2023-04-01T02:44:47;9.75;76.84
69589;SHT31;56792;50.644;17.984;2023-04-01T02:47:15;9.77;76.88
69589;SHT31;56792;50.644;17.984;2023-04-01T02:49:44;9.77;76.89
69589;SHT31;56792;50.644;17.984;2023-04-01T02:52:12;9.77;76.90
69589;SHT31;56792;50.644;17.984;2023-04-01T02:54:40;9.77;76.91
69589;SHT31;56792;50.644;17.984;2023-04-01T02:57:08;9.76;76.94
69589;SHT31;56792;50.644;17.984;2023-04-01T02:59:36;9.75;77.04
69589;SHT31;56792;50.644;17.984;2023-04-01T03:02:04;9.74;77.10
69589;SHT31;56792;50.644;17.984;2023-04-01T03:04:33;9.73;77.14
69589;SHT31;56792;50.644;17.984;2023-04-01T03:07:01;9.73;77.11
69589;SHT31;56792;50.644;17.984;2023-04-01T03:09:30;9.71;77.14
69589;SHT31;56792;50.644;17.984;2023-04-01T03:11:59;9.69;77.13
69589;SHT31;56792;50.644;17.984;2023-04-01T03:14:27;9.69;77.13
69589;SHT31;56792;50.644;17.984;2023-04-01T03:16:56;9.66;77.18
69589;SHT31;56792;50.644;17.984;2023-04-01T03:19:24;9.63;77.19
69589;SHT31;56792;50.644;17.984;2023-04-01T03:21:52;9.58;77.32
69589;SHT31;56792;50.644;17.984;2023-04-01T03:24:21;9.52;77.38
69589;SHT31;56792;50.644;17.984;2023-04-01T03:26:50;9.48;77.39
69589;SHT31;56792;50.644;17.984;2023-04-01T03:29:18;9.46;77.48
69589;SHT31;56792;50.644;17.984;2023-04-01T03:31:46;9.45;77.50
69589;SHT31;56792;50.644;17.984;2023-04-01T03:34:14;9.44;77.60
69589;SHT31;56792;50.644;17.984;2023-04-01T03:36:43;9.42;77.64
69589;SHT31;56792;50.644;17.984;2023-04-01T03:39:11;9.41;77.63
69589;SHT31;56792;50.644;17.984;2023-04-01T03:41:40;9.41;77.61
69589;SHT31;56792;50.644;17.984;2023-04-01T03:44:08;9.38;77.60
69589;SHT31;56792;50.644;17.984;2023-04-01T03:46:36;9.34;77.60
69589;SHT31;56792;50.644;17.984;2023-04-01T03:49:06;9.31;77.68
69589;SHT31;56792;50.644;17.984;2023-04-01T03:51:37;9.29;77.71
69589;SHT31;56792;50.644;17.984;2023-04-01T03:54:06;9.26;77.80
69589;SHT31;56792;50.644;17.984;2023-04-01T03:56:35;9.25;77.89
69589;SHT31;56792;50.644;17.984;2023-04-01T03:59:04;9.23;77.95
69589;SHT31;56792;50.644;17.984;2023-04-01T04:01:34;9.19;78.02
69589;SHT31;56792;50.644;17.984;2023-04-01T04:04:02;9.16;78.10
69589;SHT31;56792;50.644;17.984;2023-04-01T04:06:32;9.14;78.21
69589;SHT31;56792;50.644;17.984;2023-04-01T04:09:00;9.10;78.28
69589;SHT31;56792;50.644;17.984;2023-04-01T04:11:30;9.05;78.38
69589;SHT31;56792;50.644;17.984;2023-04-01T04:13:58;9.02;78.52
69589;SHT31;56792;50.644;17.984;2023-04-01T04:16:27;8.97;78.66
69589;SHT31;56792;50.644;17.984;2023-04-01T04:18:58;8.92;78.79
69589;SHT31;56792;50.644;17.984;2023-04-01T04:21:26;8.92;78.80
69589;SHT31;56792;50.644;17.984;2023-04-01T04:23:54;8.94;78.86
69589;SHT31;56792;50.644;17.984;2023-04-01T04:26:24;8.95;78.89
69589;SHT31;56792;50.644;17.984;2023-04-01T04:28:58;8.96;78.90
69589;SHT31;56792;50.644;17.984;2023-04-01T04:31:27;8.97;78.92
69589;SHT31;56792;50.644;17.984;2023-04-01T04:33:58;8.99;78.96
69589;SHT31;56792;50.644;17.984;2023-04-01T04:36:27;8.98;79.00
69589;SHT31;56792;50.644;17.984;2023-04-01T04:38:55;8.97;79.10
69589;SHT31;56792;50.644;17.984;2023-04-01T04:41:24;8.97;79.16
69589;SHT31;56792;50.644;17.984;2023-04-01T04:43:53;8.97;79.20
69589;SHT31;56792;50.644;17.984;2023-04-01T04:46:24;8.98;79.24
69589;SHT31;56792;50.644;17.984;2023-04-01T04:49:00;8.98;79.37
69589;SHT31;56792;50.644;17.984;2023-04-01T04:51:28;8.99;79.45
69589;SHT31;56792;50.644;17.984;2023-04-01T04:53:59;8.99;79.52
69589;SHT31;56792;50.644;17.984;2023-04-01T04:56:39;9.00;79.62
69589;SHT31;56792;50.644;17.984;2023-04-01T04:59:08;9.01;79.77
69589;SHT31;56792;50.644;17.984;2023-04-01T05:01:55;9.06;79.81
69589;SHT31;56792;50.644;17.984;2023-04-01T05:04:23;9.08;79.79
69589;SHT31;56792;50.644;17.984;2023-04-01T05:06:51;9.09;79.80
69589;SHT31;56792;50.644;17.984;2023-04-01T05:09:19;9.12;79.85
69589;SHT31;56792;50.644;17.984;2023-04-01T05:11:47;9.17;79.85
69589;SHT31;56792;50.644;17.984;2023-04-01T05:14:16;9.22;79.89
69589;SHT31;56792;50.644;17.984;2023-04-01T05:16:52;9.26;79.96
69589;SHT31;56792;50.644;17.984;2023-04-01T05:19:20;9.33;80.06
69589;SHT31;56792;50.644;17.984;2023-04-01T05:21:49;9.39;80.18
69589;SHT31;56792;50.644;17.984;2023-04-01T05:24:18;9.45;80.40
69589;SHT31;56792;50.644;17.984;2023-04-01T05:26:47;9.48;80.41
69589;SHT31;56792;50.644;17.984;2023-04-01T05:29:15;9.52;80.47
69589;SHT31;56792;50.644;17.984;2023-04-01T05:31:44;9.54;80.47
69589;SHT31;56792;50.644;17.984;2023-04-01T05:34:12;9.57;80.38
69589;SHT31;56792;50.644;17.984;2023-04-01T05:36:41;9.59;80.42
69589;SHT31;56792;50.644;17.984;2023-04-01T05:39:10;9.60;80.39
69589;SHT31;56792;50.644;17.984;2023-04-01T05:41:39;9.60;80.43
69589;SHT31;56792;50.644;17.984;2023-04-01T05:44:10;9.61;80.41
69589;SHT31;56792;50.644;17.984;2023-04-01T05:46:39;9.62;80.43
69589;SHT31;56792;50.644;17.984;2023-04-01T05:49:14;9.63;80.41
69589;SHT31;56792;50.644;17.984;2023-04-01T05:51:42;9.65;80.52
69589;SHT31;56792;50.644;17.984;2023-04-01T05:54:10;9.65;80.71
69589;SHT31;56792;50.644;17.984;2023-04-01T05:56:38;9.66;80.77
69589;SHT31;56792;50.644;17.984;2023-04-01T05:59:09;9.66;80.89
69589;SHT31;56792;50.644;17.984;2023-04-01T06:01:38;9.67;80.99
69589;SHT31;56792;50.644;17.984;2023-04-01T06:04:06;9.69;81.11
69589;SHT31;56792;50.644;17.984;2023-04-01T06:06:39;9.69;81.16
69589;SHT31;56792;50.644;17.984;2023-04-01T06:09:12;9.71;81.28
69589;SHT31;56792;50.644;17.984;2023-04-01T06:11:54;9.72;81.30
69589;SHT31;56792;50.644;17.984;2023-04-01T06:14:52;9.74;81.39
69589;SHT31;56792;50.644;17.984;2023-04-01T06:17:37;9.75;81.39
69589;SHT31;56792;50.644;17.984;2023-04-01T06:20:30;9.75;81.47
69589;SHT31;56792;50.644;17.984;2023-04-01T06:23:12;9.80;81.60
69589;SHT31;56792;50.644;17.984;2023-04-01T06:26:01;9.81;81.66
69589;SHT31;56792;50.644;17.984;2023-04-01T06:29:00;9.83;81.75
69589;SHT31;56792;50.644;17.984;2023-04-01T06:31:56;9.86;81.81
69589;SHT31;56792;50.644;17.984;2023-04-01T06:35:06;9.88;81.92
69589;SHT31;56792;50.644;17.984;2023-04-01T06:37:54;9.89;81.95
69589;SHT31;56792;50.644;17.984;2023-04-01T06:40:55;9.93;82.00
69589;SHT31;56792;50.644;17.984;2023-04-01T06:43:44;9.98;81.97
69589;SHT31;56792;50.644;17.984;2023-04-01T06:46:51;10.02;82.00
69589;SHT31;56792;50.644;17.984;2023-04-01T06:50:05;10.05;81.86
69589;SHT31;56792;50.644;17.984;2023-04-01T06:53:06;10.10;81.80
69589;SHT31;56792;50.644;17.984;2023-04-01T06:56:04;10.11;81.82
69589;SHT31;56792;50.644;17.984;2023-04-01T06:58:56;10.13;81.80
69589;SHT31;56792;50.644;17.984;2023-04-01T07:01:32;10.18;81.75
69589;SHT31;56792;50.644;17.984;2023-04-01T07:04:09;10.29;81.73
69589;SHT31;56792;50.644;17.984;2023-04-01T07:06:43;10.37;81.58
69589;SHT31;56792;50.644;17.984;2023-04-01T07:09:18;10.47;81.45
69589;SHT31;56792;50.644;17.984;2023-04-01T07:12:12;10.58;81.27
69589;SHT31;56792;50.644;17.984;2023-04-01T07:15:14;10.60;81.23
69589;SHT31;56792;50.644;17.984;2023-04-01T07:17:50;10.60;81.17
69589;SHT31;56792;50.644;17.984;2023-04-01T07:20:25;10.59;81.27
69589;SHT31;56792;50.644;17.984;2023-04-01T07:22:59;10.67;81.12
69589;SHT31;56792;50.644;17.984;2023-04-01T07:25:37;10.72;80.85
69589;SHT31;56792;50.644;17.984;2023-04-01T07:28:33;10.77;80.75
69589;SHT31;56792;50.644;17.984;2023-04-01T07:31:11;10.79;80.84
69589;SHT31;56792;50.644;17.984;2023-04-01T07:33:54;10.78;80.92
69589;SHT31;56792;50.644;17.984;2023-04-01T07:36:33;10.73;81.13
69589;SHT31;56792;50.644;17.984;2023-04-01T07:39:10;10.70;81.21
69589;SHT31;56792;50.644;17.984;2023-04-01T07:42:16;10.65;81.30
69589;SHT31;56792;50.644;17.984;2023-04-01T07:45:03;10.60;81.52
69589;SHT31;56792;50.644;17.984;2023-04-01T07:47:50;10.54;81.58
69589;SHT31;56792;50.644;17.984;2023-04-01T07:50:37;10.51;81.67
69589;SHT31;56792;50.644;17.984;2023-04-01T07:53:18;10.53;81.77
69589;SHT31;56792;50.644;17.984;2023-04-01T07:55:56;10.56;81.80
69589;SHT31;56792;50.644;17.984;2023-04-01T07:58:38;10.66;81.97
69589;SHT31;56792;50.644;17.984;2023-04-01T08:01:50;10.89;81.67
69589;SHT31;56792;50.644;17.984;2023-04-01T08:04:35;11.02;81.25
69589;SHT31;56792;50.644;17.984;2023-04-01T08:07:19;11.05;81.21
69589;SHT31;56792;50.644;17.984;2023-04-01T08:10:11;11.04;81.38
69589;SHT31;56792;50.644;17.984;2023-04-01T08:13:12;11.05;81.46
69589;SHT31;56792;50.644;17.984;2023-04-01T08:16:14;11.05;81.32
69589;SHT31;56792;50.644;17.984;2023-04-01T08:18:54;11.05;81.32
69589;SHT31;56792;50.644;17.984;2023-04-01T08:21:38;11.04;81.29
69589;SHT31;56792;50.644;17.984;2023-04-01T08:24:14;11.05;81.19
69589;SHT31;56792;50.644;17.984;2023-04-01T08:26:52;11.10;81.09
69589;SHT31;56792;50.644;17.984;2023-04-01T08:29:31;11.17;81.13
69589;SHT31;56792;50.644;17.984;2023-04-01T08:32:09;11.14;80.99
69589;SHT31;56792;50.644;17.984;2023-04-01T08:34:47;11.13;81.29
69589;SHT31;56792;50.644;17.984;2023-04-01T08:37:30;11.14;81.35
69589;SHT31;56792;50.644;17.984;2023-04-01T08:40:10;11.13;81.18
69589;SHT31;56792;50.644;17.984;2023-04-01T08:43:07;11.12;81.16
69589;SHT31;56792;50.644;17.984;2023-04-01T08:45:55;11.14;81.08
69589;SHT31;56792;50.644;17.984;2023-04-01T08:51:57;11.20;81.13
69589;SHT31;56792;50.644;17.984;2023-04-01T08:54:58;11.24;81.20
69589;SHT31;56792;50.644;17.984;2023-04-01T09:01:30;11.28;81.22
69589;SHT31;56792;50.644;17.984;2023-04-01T09:05:03;11.35;81.21
69589;SHT31;56792;50.644;17.984;2023-04-01T09:08:16;11.44;81.27
69589;SHT31;56792;50.644;17.984;2023-04-01T09:11:03;11.61;80.95
69589;SHT31;56792;50.644;17.984;2023-04-01T09:17:21;12.01;80.65
69589;SHT31;56792;50.644;17.984;2023-04-01T09:20:26;12.18;79.99
69589;SHT31;56792;50.644;17.984;2023-04-01T09:23:26;12.28;79.57
69589;SHT31;56792;50.644;17.984;2023-04-01T09:26:21;12.22;79.41
69589;SHT31;56792;50.644;17.984;2023-04-01T09:29:16;12.16;79.41
69589;SHT31;56792;50.644;17.984;2023-04-01T09:32:05;12.15;79.45
69589;SHT31;56792;50.644;17.984;2023-04-01T09:35:24;12.16;79.00
69589;SHT31;56792;50.644;17.984;2023-04-01T09:38:06;12.19;78.77
69589;SHT31;56792;50.644;17.984;2023-04-01T09:40:51;12.20;78.79
69589;SHT31;56792;50.644;17.984;2023-04-01T09:43:43;12.31;78.75
69589;SHT31;56792;50.644;17.984;2023-04-01T09:46:30;12.35;78.65
69589;SHT31;56792;50.644;17.984;2023-04-01T09:49:21;12.47;78.57
69589;SHT31;56792;50.644;17.984;2023-04-01T09:52:18;12.70;78.36
69589;SHT31;56792;50.644;17.984;2023-04-01T09:55:17;13.40;77.44
69589;SHT31;56792;50.644;17.984;2023-04-01T09:58:23;13.75;76.33
69589;SHT31;56792;50.644;17.984;2023-04-01T10:01:42;13.99;75.89
69589;SHT31;56792;50.644;17.984;2023-04-01T10:04:58;13.87;74.40
69589;SHT31;56792;50.644;17.984;2023-04-01T10:08:17;14.13;74.09
69589;SHT31;56792;50.644;17.984;2023-04-01T10:14:38;16.95;68.13
69589;SHT31;56792;50.644;17.984;2023-04-01T10:17:55;18.40;65.43
69589;SHT31;56792;50.644;17.984;2023-04-01T10:20:57;21.55;60.37
69589;SHT31;56792;50.644;17.984;2023-04-01T10:23:50;23.36;54.09
69589;SHT31;56792;50.644;17.984;2023-04-01T10:26:54;25.00;50.27
69589;SHT31;56792;50.644;17.984;2023-04-01T10:36:53;22.76;51.47
69589;SHT31;56792;50.644;17.984;2023-04-01T10:39:49;21.58;52.51
69589;SHT31;56792;50.644;17.984;2023-04-01T10:46:47;18.61;56.11
69589;SHT31;56792;50.644;17.984;2023-04-01T10:49:47;17.64;58.21
69589;SHT31;56792;50.644;17.984;2023-04-01T10:56:39;16.59;62.00
69589;SHT31;56792;50.644;17.984;2023-04-01T10:59:36;16.77;62.76
69589;SHT31;56792;50.644;17.984;2023-04-01T11:03:32;16.91;62.33
69589;SHT31;56792;50.644;17.984;2023-04-01T11:06:44;16.59;61.80
69589;SHT31;56792;50.644;17.984;2023-04-01T11:10:02;15.94;62.27
69589;SHT31;56792;50.644;17.984;2023-04-01T11:19:45;14.93;65.27
69589;SHT31;56792;50.644;17.984;2023-04-01T11:22:46;14.81;65.54
69589;SHT31;56792;50.644;17.984;2023-04-01T11:29:06;14.63;66.49
69589;SHT31;56792;50.644;17.984;2023-04-01T11:32:21;15.26;66.00
69589;SHT31;56792;50.644;17.984;2023-04-01T11:35:25;16.86;63.00
69589;SHT31;56792;50.644;17.984;2023-04-01T11:38:14;18.78;59.76
69589;SHT31;56792;50.644;17.984;2023-04-01T11:41:32;19.84;56.14
69589;SHT31;56792;50.644;17.984;2023-04-01T11:44:40;21.92;52.88
69589;SHT31;56792;50.644;17.984;2023-04-01T11:47:30;22.81;49.85
69589;SHT31;56792;50.644;17.984;2023-04-01T11:50:21;22.98;49.36
69589;SHT31;56792;50.644;17.984;2023-04-01T11:53:15;23.43;47.17
69589;SHT31;56792;50.644;17.984;2023-04-01T11:56:00;24.78;44.35
69589;SHT31;56792;50.644;17.984;2023-04-01T11:58:50;24.26;41.28
69589;SHT31;56792;50.644;17.984;2023-04-01T12:01:59;21.68;44.82
69589;SHT31;56792;50.644;17.984;2023-04-01T12:04:40;20.75;48.32
69589;SHT31;56792;50.644;17.984;2023-04-01T12:07:27;20.42;49.72
69589;SHT31;56792;50.644;17.984;2023-04-01T12:10:18;19.83;49.95
69589;SHT31;56792;50.644;17.984;2023-04-01T12:12:54;19.11;50.49
69589;SHT31;56792;50.644;17.984;2023-04-01T12:15:36;18.25;51.70
69589;SHT31;56792;50.644;17.984;2023-04-01T12:18:24;17.60;52.87
69589;SHT31;56792;50.644;17.984;2023-04-01T12:21:03;17.16;54.10
69589;SHT31;56792;50.644;17.984;2023-04-01T12:23:58;17.03;54.82
69589;SHT31;56792;50.644;17.984;2023-04-01T12:27:03;16.77;54.80
69589;SHT31;56792;50.644;17.984;2023-04-01T12:29:51;16.36;55.87
69589;SHT31;56792;50.644;17.984;2023-04-01T12:32:41;15.98;57.06
69589;SHT31;56792;50.644;17.984;2023-04-01T12:35:19;15.78;58.05
69589;SHT31;56792;50.644;17.984;2023-04-01T12:37:56;15.58;59.28
69589;SHT31;56792;50.644;17.984;2023-04-01T12:40:51;15.33;59.71
69589;SHT31;56792;50.644;17.984;2023-04-01T12:43:52;15.05;60.77
69589;SHT31;56792;50.644;17.984;2023-04-01T12:46:44;14.93;62.00
69589;SHT31;56792;50.644;17.984;2023-04-01T12:49:46;15.01;62.79
69589;SHT31;56792;50.644;17.984;2023-04-01T12:52:49;15.24;63.08
69589;SHT31;56792;50.644;17.984;2023-04-01T12:55:38;15.77;62.83
69589;SHT31;56792;50.644;17.984;2023-04-01T13:10:44;18.96;56.44
69589;SHT31;56792;50.644;17.984;2023-04-01T13:13:39;19.06;55.46
69589;SHT31;56792;50.644;17.984;2023-04-01T13:16:27;19.36;55.23
69589;SHT31;56792;50.644;17.984;2023-04-01T13:19:03;19.56;54.82
69589;SHT31;56792;50.644;17.984;2023-04-01T13:21:43;19.13;54.82
69589;SHT31;56792;50.644;17.984;2023-04-01T13:24:34;18.77;55.54
69589;SHT31;56792;50.644;17.984;2023-04-01T13:27:14;18.41;55.96
69589;SHT31;56792;50.644;17.984;2023-04-01T13:30:01;17.98;56.16
69589;SHT31;56792;50.644;17.984;2023-04-01T13:32:50;17.46;57.04
69589;SHT31;56792;50.644;17.984;2023-04-01T13:35:31;17.10;57.61
69589;SHT31;56792;50.644;17.984;2023-04-01T13:41:16;16.43;59.35
69589;SHT31;56792;50.644;17.984;2023-04-01T13:44:09;16.37;59.62
69589;SHT31;56792;50.644;17.984;2023-04-01T13:50:35;18.36;57.26
69589;SHT31;56792;50.644;17.984;2023-04-01T13:53:39;18.28;56.58
69589;SHT31;56792;50.644;17.984;2023-04-01T13:56:29;17.94;57.12
69589;SHT31;56792;50.644;17.984;2023-04-01T14:02:39;17.23;58.00
69589;SHT31;56792;50.644;17.984;2023-04-01T14:05:34;16.99;58.72
69589;SHT31;56792;50.644;17.984;2023-04-01T14:08:28;17.04;59.67
69589;SHT31;56792;50.644;17.984;2023-04-01T14:11:17;17.54;59.47
69589;SHT31;56792;50.644;17.984;2023-04-01T14:13:56;17.92;58.27
69589;SHT31;56792;50.644;17.984;2023-04-01T14:19:50;17.83;58.05
69589;SHT31;56792;50.644;17.984;2023-04-01T14:22:59;17.68;57.28
69589;SHT31;56792;50.644;17.984;2023-04-01T14:26:04;17.48;57.11
69589;SHT31;56792;50.644;17.984;2023-04-01T14:28:48;17.24;57.54
69589;SHT31;56792;50.644;17.984;2023-04-01T14:31:34;17.09;57.62
69589;SHT31;56792;50.644;17.984;2023-04-01T14:34:24;16.84;57.61
69589;SHT31;56792;50.644;17.984;2023-04-01T14:37:14;16.71;58.44
69589;SHT31;56792;50.644;17.984;2023-04-01T14:40:11;16.66;58.42
69589;SHT31;56792;50.644;17.984;2023-04-01T14:42:55;16.47;58.76
69589;SHT31;56792;50.644;17.984;2023-04-01T14:46:08;16.35;58.88
69589;SHT31;56792;50.644;17.984;2023-04-01T14:48:53;16.14;58.58
69589;SHT31;56792;50.644;17.984;2023-04-01T14:51:29;16.03;58.99
69589;SHT31;56792;50.644;17.984;2023-04-01T14:54:04;15.95;59.21
69589;SHT31;56792;50.644;17.984;2023-04-01T14:56:43;15.82;59.49
69589;SHT31;56792;50.644;17.984;2023-04-01T14:59:17;15.73;59.96
69589;SHT31;56792;50.644;17.984;2023-04-01T15:01:57;15.64;60.50
69589;SHT31;56792;50.644;17.984;2023-04-01T15:04:45;15.59;60.80
69589;SHT31;56792;50.644;17.984;2023-04-01T15:10:39;15.40;61.69
69589;SHT31;56792;50.644;17.984;2023-04-01T15:13:24;15.21;62.08
69589;SHT31;56792;50.644;17.984;2023-04-01T15:16:15;15.03;62.17
69589;SHT31;56792;50.644;17.984;2023-04-01T15:18:56;14.89;62.69
69589;SHT31;56792;50.644;17.984;2023-04-01T15:21:41;14.81;62.81
69589;SHT31;56792;50.644;17.984;2023-04-01T15:24:24;14.79;63.30
69589;SHT31;56792;50.644;17.984;2023-04-01T15:27:06;14.72;63.37
69589;SHT31;56792;50.644;17.984;2023-04-01T15:29:51;14.64;63.42
69589;SHT31;56792;50.644;17.984;2023-04-01T15:32:40;14.45;63.58
69589;SHT31;56792;50.644;17.984;2023-04-01T15:35:27;14.29;64.13
69589;SHT31;56792;50.644;17.984;2023-04-01T15:38:06;14.11;64.46
69589;SHT31;56792;50.644;17.984;2023-04-01T15:40:49;13.94;64.89
69589;SHT31;56792;50.644;17.984;2023-04-01T15:43:30;13.81;65.35
69589;SHT31;56792;50.644;17.984;2023-04-01T15:46:12;13.69;65.78
69589;SHT31;56792;50.644;17.984;2023-04-01T15:49:00;13.57;65.93
69589;SHT31;56792;50.644;17.984;2023-04-01T15:51:41;13.48;66.32
69589;SHT31;56792;50.644;17.984;2023-04-01T15:54:47;13.38;66.86
69589;SHT31;56792;50.644;17.984;2023-04-01T15:57:34;13.26;67.07
69589;SHT31;56792;50.644;17.984;2023-04-01T16:00:23;13.17;67.45
69589;SHT31;56792;50.644;17.984;2023-04-01T16:03:06;13.13;67.78
69589;SHT31;56792;50.644;17.984;2023-04-01T16:05:50;13.11;67.83
69589;SHT31;56792;50.644;17.984;2023-04-01T16:08:41;13.11;67.63
69589;SHT31;56792;50.644;17.984;2023-04-01T16:11:38;13.08;67.35
69589;SHT31;56792;50.644;17.984;2023-04-01T16:14:25;13.06;67.27
69589;SHT31;56792;50.644;17.984;2023-04-01T16:17:25;13.05;67.37
69589;SHT31;56792;50.644;17.984;2023-04-01T16:20:18;13.04;67.33
69589;SHT31;56792;50.644;17.984;2023-04-01T16:22:54;12.98;67.33
69589;SHT31;56792;50.644;17.984;2023-04-01T16:25:32;12.93;67.46
69589;SHT31;56792;50.644;17.984;2023-04-01T16:28:15;12.88;67.60
69589;SHT31;56792;50.644;17.984;2023-04-01T16:30:56;12.84;67.92
69589;SHT31;56792;50.644;17.984;2023-04-01T16:33:34;12.84;67.98
69589;SHT31;56792;50.644;17.984;2023-04-01T16:36:17;12.86;68.13
69589;SHT31;56792;50.644;17.984;2023-04-01T16:38:57;12.90;68.26
69589;SHT31;56792;50.644;17.984;2023-04-01T16:41:47;12.88;68.38
69589;SHT31;56792;50.644;17.984;2023-04-01T16:44:25;12.85;68.49
69589;SHT31;56792;50.644;17.984;2023-04-01T16:46:56;12.85;68.84
69589;SHT31;56792;50.644;17.984;2023-04-01T16:49:36;12.86;68.81
69589;SHT31;56792;50.644;17.984;2023-04-01T16:52:16;12.81;68.93
69589;SHT31;56792;50.644;17.984;2023-04-01T16:55:03;12.77;69.14
69589;SHT31;56792;50.644;17.984;2023-04-01T16:57:45;12.70;69.41
69589;SHT31;56792;50.644;17.984;2023-04-01T17:00:22;12.61;69.65
69589;SHT31;56792;50.644;17.984;2023-04-01T17:02:58;12.50;70.26
69589;SHT31;56792;50.644;17.984;2023-04-01T17:05:46;12.38;70.98
69589;SHT31;56792;50.644;17.984;2023-04-01T17:08:31;12.30;71.56
69589;SHT31;56792;50.644;17.984;2023-04-01T17:11:14;12.21;72.02
69589;SHT31;56792;50.644;17.984;2023-04-01T17:13:50;12.12;72.48
69589;SHT31;56792;50.644;17.984;2023-04-01T17:16:35;12.01;72.71
69589;SHT31;56792;50.644;17.984;2023-04-01T17:19:27;11.96;72.91
69589;SHT31;56792;50.644;17.984;2023-04-01T17:22:32;11.92;73.27
69589;SHT31;56792;50.644;17.984;2023-04-01T17:28:23;11.77;73.63
69589;SHT31;56792;50.644;17.984;2023-04-01T17:31:05;11.72;73.97
69589;SHT31;56792;50.644;17.984;2023-04-01T17:33:44;11.67;74.08
69589;SHT31;56792;50.644;17.984;2023-04-01T17:36:38;11.61;74.26
69589;SHT31;56792;50.644;17.984;2023-04-01T17:42:21;11.50;74.77
69589;SHT31;56792;50.644;17.984;2023-04-01T17:45:08;11.44;74.92
69589;SHT31;56792;50.644;17.984;2023-04-01T17:47:54;11.35;75.09
69589;SHT31;56792;50.644;17.984;2023-04-01T17:50:36;11.30;75.25
69589;SHT31;56792;50.644;17.984;2023-04-01T17:53:28;11.27;75.48
69589;SHT31;56792;50.644;17.984;2023-04-01T17:56:10;11.23;75.71
69589;SHT31;56792;50.644;17.984;2023-04-01T17:58:50;11.23;75.88
69589;SHT31;56792;50.644;17.984;2023-04-01T18:01:31;11.23;75.93
69589;SHT31;56792;50.644;17.984;2023-04-01T18:04:17;11.24;76.08
69589;SHT31;56792;50.644;17.984;2023-04-01T18:07:02;11.25;76.04
69589;SHT31;56792;50.644;17.984;2023-04-01T18:09:51;11.24;76.11
69589;SHT31;56792;50.644;17.984;2023-04-01T18:12:36;11.21;76.18